Pasadena 2N

39° 08' 31"N, 76° 30' 27"W, Elevation 43 ft.
Eastern Time

Hourly observations for the last 72 hours

Date Time Temperature (F) Humi-
dity

(%)
Wind
(mph)
Pressure Rain (in) Sun
(W/m2)
ET
(in)
Air Dew 6 Hour 1 Hr 3 Hr 6 Hr Day
Alt
(in)
Sea
Level

(mb)
Max Min
21 02:00 78.0 74.5 87.2 78.0 89 S 1 G 2 29.89 1012.2 0.00 0 0.001
21 01:00 80.0 75.1 85 S 0 G 1 29.90 1012.4 0.00 0 0.000
21 00:00 81.7 76.0 83 S 1 G 6 29.90 1012.5 0.00 0 0.135
20 23:00 81.2 76.3 85 SSW 1 G 4 29.90 1012.4 0.00 0 0.134
20 22:00 81.1 76.2 85 SSE 1 G 4 29.89 1012.3 0.00 0 0.133
20 21:00 83.8 77.7 82 SSE 0 G 1 29.88 1012.0 0.00 0 0.133
20 20:00 87.2 79.5 96.3 87.2 78 SSE 0 G 2 29.87 1011.6 0.00 21 0.131
20 19:00 89.8 79.6 72 SSE 3 G 6 29.86 1011.3 0.00 47 0.124
20 18:00 91.9 78.9 66 S 1 G 6 29.87 1011.6 0.00 327 0.113
20 17:00 92.7 78.3 63 S 3 G 6 29.89 1012.1 0.00 501 0.097
20 16:00 92.3 79.3 66 S 4 G 11 29.90 1012.5 0.00 462 0.082
20 15:00 95.5 74.5 51 W 2 G 8 29.92 1013.1 0.00 840 0.066
20 14:00 91.7 78.3 93.5 76.8 65 SSE 1 G 5 29.94 1014.1 0.00 868 0.053
20 13:00 89.9 78.8 70 S 0 G 2 29.96 1014.5 0.00 747 0.040
20 12:00 90.4 79.3 70 ENE 2 G 3 29.98 1015.2 0.00 714 0.024
20 11:00 91.1 77.2 64 SE 1 G 6 29.99 1015.5 0.00 703 0.007
20 10:00 86.3 75.4 70 NNW 1 G 3 29.99 1015.7 0.00 387 0.004
20 09:00 82.5 76.8 83 SSW 0 G 1 30.00 1015.8 0.00 72 0.002
20 08:00 76.8 75.9 76.8 73.1 97 W 1 G 3 29.99 1015.5 0.00 54 0.001
20 07:00 74.2 73.6 98 NNE 0 G 1 29.98 1015.3 0.00 35 0.000
20 06:00 73.1 72.2 97 NNE 0 G 1 29.97 1015.0 0.00 0 0.000
20 05:00 73.9 73.0 97 NNE 0 G 1 29.97 1014.9 0.00 0 0.000
20 04:00 74.4 73.5 97 Calm 29.97 1015.1 0.00 0 0.000
20 03:00 74.6 73.4 96 Calm 29.99 1015.4 0.00 0 0.000
20 02:00 75.4 73.9 80.3 75.3 95 S 0 G 2 29.99 1015.5 0.00 0 0.000
20 01:00 75.9 74.0 94 SSE 1 G 5 30.00 1015.9 0.00 0 0.000
20 00:00 76.1 74.2 94 S 1 G 5 30.00 1015.8 1.39 0 0.106
19 23:00 77.1 75.9 96 S 0 G 3 30.00 1016.0 1.39 0 0.106
19 22:00 77.8 76.6 96 SSE 3 G 7 29.98 1015.4 1.39 0 0.106
19 21:00 78.7 76.8 94 Calm 29.99 1015.7 1.39 0 0.106
19 20:00 80.3 78.1 93.1 73.2 93 SSE 1 G 4 29.98 1015.2 1.39 1.39 18 0.105
19 19:00 83.7 79.1 86 SSE 3 G 6 29.96 1014.7 1.39 56 0.098
19 18:00 83.4 78.4 85 SSE 4 G 9 29.97 1014.8 1.39 381 0.086
19 17:00 79.2 77.0 93 S 3 G 7 29.98 1015.3 0.44 1.39 1.39 557 0.074
19 16:00 73.9 71.1 91 ENE 8 G 18 30.00 1016.1 0.78 0.95 44 0.072
19 15:00 81.3 78.4 91 NE 4 G 8 30.01 1016.3 0.17 0.17 84 0.065
19 14:00 92.9 78.5 92.9 76.2 63 E 2 G 9 30.01 1016.2 0.00 330 0.049
19 13:00 91.1 80.4 71 ENE 3 G 8 30.02 1016.8 0.00 793 0.038
19 12:00 91.0 78.1 66 E 2 G 4 30.04 1017.4 0.00 779 0.020
19 11:00 87.6 77.5 72 NE 3 G 5 30.05 1017.7 0.00 610 0.005
19 10:00 83.8 76.2 78 NNE 2 G 3 30.05 1017.6 0.00 462 0.002
19 09:00 80.8 75.9 85 W 1 G 3 30.06 1017.9 0.00 56 0.001
19 08:00 76.2 75.0 76.2 71.7 96 S 1 G 4 30.05 1017.7 0.00 42 0.000
19 07:00 72.6 71.7 97 ESE 0 G 1 30.05 1017.5 0.00 26 0.000
19 06:00 71.8 70.9 97 ESE 0 G 1 30.04 1017.2 0.00 0 0.000
19 05:00 72.1 70.9 96 ESE 0 G 1 30.03 1017.0 0.00 0 0.000
19 04:00 72.7 71.5 96 Calm 30.03 1017.1 0.00 0 0.000
19 03:00 73.5 72.0 95 ESE 0 G 1 30.05 1017.5 0.00 0 0.000
19 02:00 74.7 72.9 82.1 74.7 94 Calm 30.05 1017.5 0.00 0 0.000
19 01:00 75.8 73.3 92 ESE 1 G 4 30.05 1017.6 0.00 0 0.000
19 00:00 77.0 74.5 92 SSE 2 G 5 30.06 1017.8 0.00 0 0.138
18 23:00 77.8 74.6 90 SSE 3 G 6 30.06 1017.8 0.00 0 0.137
18 22:00 78.6 73.7 85 SSE 2 G 6 30.05 1017.6 0.00 0 0.136
18 21:00 79.3 73.3 82 S 3 G 6 30.04 1017.4 0.00 0 0.135
18 20:00 82.1 73.0 91.9 82.1 74 S 2 G 5 30.03 1017.1 0.00 11 0.134
18 19:00 84.6 75.0 73 S 2 G 4 30.03 1016.9 0.00 42 0.131
18 18:00 85.4 73.6 68 SSE 3 G 6 30.02 1016.8 0.00 51 0.126
18 17:00 91.6 74.2 57 ESE 2 G 9 30.03 1017.1 0.00 422 0.110
18 16:00 91.2 72.8 55 SE 3 G 10 30.03 1017.1 0.00 589 0.095
18 15:00 89.2 73.5 60 S 5 G 12 30.03 1017.0 0.00 705 0.077
18 14:00 87.8 75.9 89.6 75.2 68 SSE 7 G 12 30.04 1017.4 0.00 696 0.057
18 13:00 89.0 78.0 70 E 3 G 12 30.06 1017.9 0.00 779 0.038
18 12:00 89.3 75.5 64 SE 2 G 8 30.07 1018.4 0.00 724 0.020
18 11:00 87.1 75.7 69 NE 3 G 7 30.07 1018.5 0.00 626 0.005
18 10:00 83.5 75.1 76 E 1 G 6 30.07 1018.3 0.00 473 0.002
18 09:00 79.9 73.9 82 ENE 2 G 4 30.07 1018.2 0.00 47 0.001
18 08:00 75.2 74.6 75.2 71.0 98 SSE 1 G 2 30.06 1018.0 0.00 47 0.000
18 07:00 72.0 71.1 97 Calm 30.05 1017.7 0.00 30 0.000
18 06:00 71.2 70.3 97 Calm 30.04 1017.3 0.00 0 0.000
18 05:00 71.3 70.4 97 Calm 30.03 1017.1 0.00 0 0.000
18 04:00 71.7 70.5 96 Calm 30.03 1016.9 0.00 0 0.000
18 03:00 71.5 70.3 96 Calm 30.02 1016.6 0.00 0 0.000

Data generated by WxSolution Version 1.9.0.2, Build 2016.11.28.